sensor_id;sensor_type;location;lat;lon;timestamp;temperature;humidity
69770;SHT30;57282;52.514;13.458;2022-11-15T00:00:49;8.98;76.68
69770;SHT30;57282;52.514;13.458;2022-11-15T00:03:17;8.99;76.49
69770;SHT30;57282;52.514;13.458;2022-11-15T00:05:45;8.98;76.18
69770;SHT30;57282;52.514;13.458;2022-11-15T00:08:12;8.95;76.26
69770;SHT30;57282;52.514;13.458;2022-11-15T00:10:40;8.95;76.09
69770;SHT30;57282;52.514;13.458;2022-11-15T00:13:07;8.86;76.55
69770;SHT30;57282;52.514;13.458;2022-11-15T00:15:36;8.79;76.22
69770;SHT30;57282;52.514;13.458;2022-11-15T00:18:03;8.79;76.67
69770;SHT30;57282;52.514;13.458;2022-11-15T00:20:30;8.78;76.89
69770;SHT30;57282;52.514;13.458;2022-11-15T00:22:57;8.73;76.87
69770;SHT30;57282;52.514;13.458;2022-11-15T00:25:24;8.68;76.82
69770;SHT30;57282;52.514;13.458;2022-11-15T00:27:55;8.59;77.09
69770;SHT30;57282;52.514;13.458;2022-11-15T00:30:23;8.64;76.89
69770;SHT30;57282;52.514;13.458;2022-11-15T00:32:52;8.59;77.08
69770;SHT30;57282;52.514;13.458;2022-11-15T00:35:19;8.61;77.23
69770;SHT30;57282;52.514;13.458;2022-11-15T00:37:46;8.62;76.81
69770;SHT30;57282;52.514;13.458;2022-11-15T00:40:13;8.62;76.84
69770;SHT30;57282;52.514;13.458;2022-11-15T00:42:40;8.54;77.14
69770;SHT30;57282;52.514;13.458;2022-11-15T00:45:09;8.58;76.79
69770;SHT30;57282;52.514;13.458;2022-11-15T00:47:36;8.51;77.18
69770;SHT30;57282;52.514;13.458;2022-11-15T00:50:05;8.50;77.49
69770;SHT30;57282;52.514;13.458;2022-11-15T00:52:32;8.52;77.12
69770;SHT30;57282;52.514;13.458;2022-11-15T00:54:59;8.51;77.28
69770;SHT30;57282;52.514;13.458;2022-11-15T00:57:26;8.45;77.70
69770;SHT30;57282;52.514;13.458;2022-11-15T00:59:52;8.45;77.89
69770;SHT30;57282;52.514;13.458;2022-11-15T01:02:19;8.44;77.64
69770;SHT30;57282;52.514;13.458;2022-11-15T01:04:46;8.38;77.82
69770;SHT30;57282;52.514;13.458;2022-11-15T01:07:14;8.36;78.22
69770;SHT30;57282;52.514;13.458;2022-11-15T01:09:40;8.38;77.58
69770;SHT30;57282;52.514;13.458;2022-11-15T01:12:07;8.38;77.92
69770;SHT30;57282;52.514;13.458;2022-11-15T01:14:33;8.41;77.35
69770;SHT30;57282;52.514;13.458;2022-11-15T01:17:00;8.41;77.39
69770;SHT30;57282;52.514;13.458;2022-11-15T01:19:27;8.38;77.39
69770;SHT30;57282;52.514;13.458;2022-11-15T01:21:53;8.38;77.82
69770;SHT30;57282;52.514;13.458;2022-11-15T01:24:21;8.36;77.45
69770;SHT30;57282;52.514;13.458;2022-11-15T01:26:48;8.31;77.86
69770;SHT30;57282;52.514;13.458;2022-11-15T01:29:15;8.30;78.19
69770;SHT30;57282;52.514;13.458;2022-11-15T01:31:43;8.30;77.68
69770;SHT30;57282;52.514;13.458;2022-11-15T01:34:09;8.27;77.71
69770;SHT30;57282;52.514;13.458;2022-11-15T01:36:36;8.31;77.81
69770;SHT30;57282;52.514;13.458;2022-11-15T01:39:03;8.33;77.78
69770;SHT30;57282;52.514;13.458;2022-11-15T01:41:32;8.31;77.41
69770;SHT30;57282;52.514;13.458;2022-11-15T01:47:07;8.36;77.08
69770;SHT30;57282;52.514;13.458;2022-11-15T01:49:40;8.34;77.19
69770;SHT30;57282;52.514;13.458;2022-11-15T01:52:17;8.26;77.46
69770;SHT30;57282;52.514;13.458;2022-11-15T01:54:47;8.20;77.65
69770;SHT30;57282;52.514;13.458;2022-11-15T01:57:18;8.19;78.10
69770;SHT30;57282;52.514;13.458;2022-11-15T01:59:46;8.21;77.79
69770;SHT30;57282;52.514;13.458;2022-11-15T02:02:13;8.23;77.63
69770;SHT30;57282;52.514;13.458;2022-11-15T02:04:41;8.20;77.97
69770;SHT30;57282;52.514;13.458;2022-11-15T02:07:11;8.24;77.47
69770;SHT30;57282;52.514;13.458;2022-11-15T02:09:41;8.24;77.66
69770;SHT30;57282;52.514;13.458;2022-11-15T02:12:10;8.26;77.54
69770;SHT30;57282;52.514;13.458;2022-11-15T02:14:42;8.19;78.15
69770;SHT30;57282;52.514;13.458;2022-11-15T02:17:26;8.17;78.06
69770;SHT30;57282;52.514;13.458;2022-11-15T02:20:18;8.21;77.87
69770;SHT30;57282;52.514;13.458;2022-11-15T02:27:06;8.20;77.95
69770;SHT30;57282;52.514;13.458;2022-11-15T02:30:16;8.23;77.75
69770;SHT30;57282;52.514;13.458;2022-11-15T02:32:49;8.21;77.82
69770;SHT30;57282;52.514;13.458;2022-11-15T02:35:26;8.19;77.86
69770;SHT30;57282;52.514;13.458;2022-11-15T02:38:08;8.29;77.58
69770;SHT30;57282;52.514;13.458;2022-11-15T02:40:45;8.23;77.76
69770;SHT30;57282;52.514;13.458;2022-11-15T02:43:24;8.23;77.81
69770;SHT30;57282;52.514;13.458;2022-11-15T02:46:17;8.21;77.67
69770;SHT30;57282;52.514;13.458;2022-11-15T02:49:09;8.13;77.41
69770;SHT30;57282;52.514;13.458;2022-11-15T02:51:38;8.11;78.26
69770;SHT30;57282;52.514;13.458;2022-11-15T02:54:07;8.09;77.98
69770;SHT30;57282;52.514;13.458;2022-11-15T02:56:38;8.10;78.28
69770;SHT30;57282;52.514;13.458;2022-11-15T02:59:17;8.11;77.90
69770;SHT30;57282;52.514;13.458;2022-11-15T03:02:05;8.07;77.96
69770;SHT30;57282;52.514;13.458;2022-11-15T03:04:44;8.11;77.79
69770;SHT30;57282;52.514;13.458;2022-11-15T03:07:24;8.07;77.82
69770;SHT30;57282;52.514;13.458;2022-11-15T03:10:04;8.10;77.90
69770;SHT30;57282;52.514;13.458;2022-11-15T03:12:37;8.04;78.21
69770;SHT30;57282;52.514;13.458;2022-11-15T03:15:15;8.02;78.20
69770;SHT30;57282;52.514;13.458;2022-11-15T03:17:55;7.96;78.68
69770;SHT30;57282;52.514;13.458;2022-11-15T03:20:27;7.96;78.48
69770;SHT30;57282;52.514;13.458;2022-11-15T03:22:58;7.96;78.33
69770;SHT30;57282;52.514;13.458;2022-11-15T03:25:31;7.96;77.99
69770;SHT30;57282;52.514;13.458;2022-11-15T03:28:05;8.03;78.00
69770;SHT30;57282;52.514;13.458;2022-11-15T03:30:36;8.00;77.72
69770;SHT30;57282;52.514;13.458;2022-11-15T03:33:07;7.97;78.08
69770;SHT30;57282;52.514;13.458;2022-11-15T03:35:39;7.97;78.07
69770;SHT30;57282;52.514;13.458;2022-11-15T03:38:16;7.92;78.08
69770;SHT30;57282;52.514;13.458;2022-11-15T03:40:53;7.97;77.88
69770;SHT30;57282;52.514;13.458;2022-11-15T03:43:30;7.89;78.08
69770;SHT30;57282;52.514;13.458;2022-11-15T03:46:06;7.82;78.37
69770;SHT30;57282;52.514;13.458;2022-11-15T03:48:42;7.90;78.32
69770;SHT30;57282;52.514;13.458;2022-11-15T03:51:13;7.79;78.29
69770;SHT30;57282;52.514;13.458;2022-11-15T03:53:41;7.79;78.13
69770;SHT30;57282;52.514;13.458;2022-11-15T03:56:08;7.79;78.37
69770;SHT30;57282;52.514;13.458;2022-11-15T03:58:35;7.82;78.55
69770;SHT30;57282;52.514;13.458;2022-11-15T04:01:02;7.87;78.07
69770;SHT30;57282;52.514;13.458;2022-11-15T04:03:29;7.78;78.20
69770;SHT30;57282;52.514;13.458;2022-11-15T04:05:57;7.78;78.45
69770;SHT30;57282;52.514;13.458;2022-11-15T04:08:24;7.79;78.28
69770;SHT30;57282;52.514;13.458;2022-11-15T04:10:51;7.83;78.19
69770;SHT30;57282;52.514;13.458;2022-11-15T04:13:17;7.81;78.22
69770;SHT30;57282;52.514;13.458;2022-11-15T04:15:44;7.75;78.48
69770;SHT30;57282;52.514;13.458;2022-11-15T04:18:11;7.73;78.55
69770;SHT30;57282;52.514;13.458;2022-11-15T04:20:37;7.75;78.39
69770;SHT30;57282;52.514;13.458;2022-11-15T04:23:23;7.75;78.37
69770;SHT30;57282;52.514;13.458;2022-11-15T04:26:10;7.72;78.25
69770;SHT30;57282;52.514;13.458;2022-11-15T04:28:38;7.78;78.42
69770;SHT30;57282;52.514;13.458;2022-11-15T04:31:26;7.81;77.94
69770;SHT30;57282;52.514;13.458;2022-11-15T04:33:53;7.72;78.09
69770;SHT30;57282;52.514;13.458;2022-11-15T04:36:20;7.73;78.28
69770;SHT30;57282;52.514;13.458;2022-11-15T04:39:07;7.72;78.46
69770;SHT30;57282;52.514;13.458;2022-11-15T04:41:34;7.76;78.20
69770;SHT30;57282;52.514;13.458;2022-11-15T04:44:00;7.76;78.26
69770;SHT30;57282;52.514;13.458;2022-11-15T04:46:27;7.78;77.93
69770;SHT30;57282;52.514;13.458;2022-11-15T04:48:54;7.76;78.31
69770;SHT30;57282;52.514;13.458;2022-11-15T04:51:21;7.72;78.39
69770;SHT30;57282;52.514;13.458;2022-11-15T04:53:48;7.73;78.24
69770;SHT30;57282;52.514;13.458;2022-11-15T04:56:16;7.76;78.23
69770;SHT30;57282;52.514;13.458;2022-11-15T04:58:42;7.79;78.09
69770;SHT30;57282;52.514;13.458;2022-11-15T05:01:10;7.81;77.99
69770;SHT30;57282;52.514;13.458;2022-11-15T05:03:39;7.86;77.90
69770;SHT30;57282;52.514;13.458;2022-11-15T05:06:20;7.85;77.95
69770;SHT30;57282;52.514;13.458;2022-11-15T05:08:47;7.83;78.02
69770;SHT30;57282;52.514;13.458;2022-11-15T05:11:15;7.79;77.64
69770;SHT30;57282;52.514;13.458;2022-11-15T05:13:42;7.81;77.89
69770;SHT30;57282;52.514;13.458;2022-11-15T05:16:09;7.82;77.86
69770;SHT30;57282;52.514;13.458;2022-11-15T05:18:36;7.82;77.94
69770;SHT30;57282;52.514;13.458;2022-11-15T05:21:08;7.73;77.89
69770;SHT30;57282;52.514;13.458;2022-11-15T05:23:37;7.78;77.77
69770;SHT30;57282;52.514;13.458;2022-11-15T05:26:05;7.85;77.90
69770;SHT30;57282;52.514;13.458;2022-11-15T05:28:36;7.78;78.15
69770;SHT30;57282;52.514;13.458;2022-11-15T05:31:05;7.76;77.85
69770;SHT30;57282;52.514;13.458;2022-11-15T05:33:34;7.78;78.41
69770;SHT30;57282;52.514;13.458;2022-11-15T05:36:04;7.85;78.09
69770;SHT30;57282;52.514;13.458;2022-11-15T05:38:36;7.85;77.84
69770;SHT30;57282;52.514;13.458;2022-11-15T05:41:04;7.86;77.72
69770;SHT30;57282;52.514;13.458;2022-11-15T05:43:35;7.81;77.64
69770;SHT30;57282;52.514;13.458;2022-11-15T05:46:05;7.75;78.17
69770;SHT30;57282;52.514;13.458;2022-11-15T05:48:34;7.79;78.21
69770;SHT30;57282;52.514;13.458;2022-11-15T05:51:03;7.73;78.33
69770;SHT30;57282;52.514;13.458;2022-11-15T05:53:33;7.75;78.33
69770;SHT30;57282;52.514;13.458;2022-11-15T05:56:02;7.76;78.45
69770;SHT30;57282;52.514;13.458;2022-11-15T05:58:30;7.76;78.27
69770;SHT30;57282;52.514;13.458;2022-11-15T06:00:59;7.68;77.92
69770;SHT30;57282;52.514;13.458;2022-11-15T06:03:27;7.69;78.72
69770;SHT30;57282;52.514;13.458;2022-11-15T06:05:53;7.72;78.53
69770;SHT30;57282;52.514;13.458;2022-11-15T06:08:20;7.72;78.55
69770;SHT30;57282;52.514;13.458;2022-11-15T06:10:47;7.72;78.15
69770;SHT30;57282;52.514;13.458;2022-11-15T06:13:13;7.79;78.16
69770;SHT30;57282;52.514;13.458;2022-11-15T06:15:40;7.78;78.33
69770;SHT30;57282;52.514;13.458;2022-11-15T06:18:08;7.83;78.46
69770;SHT30;57282;52.514;13.458;2022-11-15T06:20:35;7.86;77.98
69770;SHT30;57282;52.514;13.458;2022-11-15T06:23:03;7.83;78.52
69770;SHT30;57282;52.514;13.458;2022-11-15T06:25:31;7.85;78.42
69770;SHT30;57282;52.514;13.458;2022-11-15T06:27:59;7.82;78.57
69770;SHT30;57282;52.514;13.458;2022-11-15T06:30:29;7.93;78.20
69770;SHT30;57282;52.514;13.458;2022-11-15T06:32:59;7.94;77.94
69770;SHT30;57282;52.514;13.458;2022-11-15T06:35:30;7.92;77.98
69770;SHT30;57282;52.514;13.458;2022-11-15T06:38:02;7.94;77.92
69770;SHT30;57282;52.514;13.458;2022-11-15T06:40:33;7.86;78.59
69770;SHT30;57282;52.514;13.458;2022-11-15T06:43:01;7.87;78.34
69770;SHT30;57282;52.514;13.458;2022-11-15T06:45:28;7.85;78.56
69770;SHT30;57282;52.514;13.458;2022-11-15T06:47:55;7.90;78.67
69770;SHT30;57282;52.514;13.458;2022-11-15T06:50:21;7.90;78.65
69770;SHT30;57282;52.514;13.458;2022-11-15T06:52:50;7.90;78.41
69770;SHT30;57282;52.514;13.458;2022-11-15T06:55:17;7.89;79.01
69770;SHT30;57282;52.514;13.458;2022-11-15T06:57:47;7.94;78.46
69770;SHT30;57282;52.514;13.458;2022-11-15T07:00:16;7.94;78.71
69770;SHT30;57282;52.514;13.458;2022-11-15T07:02:44;8.02;78.12
69770;SHT30;57282;52.514;13.458;2022-11-15T07:05:12;8.04;78.08
69770;SHT30;57282;52.514;13.458;2022-11-15T07:07:40;8.06;78.41
69770;SHT30;57282;52.514;13.458;2022-11-15T07:10:09;8.09;78.17
69770;SHT30;57282;52.514;13.458;2022-11-15T07:12:36;8.10;78.56
69770;SHT30;57282;52.514;13.458;2022-11-15T07:15:04;8.11;78.46
69770;SHT30;57282;52.514;13.458;2022-11-15T07:17:31;8.14;78.08
69770;SHT30;57282;52.514;13.458;2022-11-15T07:19:58;8.14;78.45
69770;SHT30;57282;52.514;13.458;2022-11-15T07:22:25;8.20;78.23
69770;SHT30;57282;52.514;13.458;2022-11-15T07:24:51;8.21;77.78
69770;SHT30;57282;52.514;13.458;2022-11-15T07:27:19;8.29;78.02
69770;SHT30;57282;52.514;13.458;2022-11-15T07:29:46;8.24;78.15
69770;SHT30;57282;52.514;13.458;2022-11-15T07:32:12;8.29;78.14
69770;SHT30;57282;52.514;13.458;2022-11-15T07:34:39;8.33;77.97
69770;SHT30;57282;52.514;13.458;2022-11-15T07:37:06;8.36;77.83
69770;SHT30;57282;52.514;13.458;2022-11-15T07:39:32;8.41;77.89
69770;SHT30;57282;52.514;13.458;2022-11-15T07:41:59;8.47;77.74
69770;SHT30;57282;52.514;13.458;2022-11-15T07:44:44;8.50;77.65
69770;SHT30;57282;52.514;13.458;2022-11-15T07:47:12;8.48;77.81
69770;SHT30;57282;52.514;13.458;2022-11-15T07:49:39;8.45;78.05
69770;SHT30;57282;52.514;13.458;2022-11-15T07:52:06;8.47;78.44
69770;SHT30;57282;52.514;13.458;2022-11-15T07:54:33;8.50;77.87
69770;SHT30;57282;52.514;13.458;2022-11-15T07:56:59;8.50;78.31
69770;SHT30;57282;52.514;13.458;2022-11-15T07:59:26;8.50;78.52
69770;SHT30;57282;52.514;13.458;2022-11-15T08:01:54;8.58;78.22
69770;SHT30;57282;52.514;13.458;2022-11-15T08:04:22;8.61;77.77
69770;SHT30;57282;52.514;13.458;2022-11-15T08:06:48;8.62;77.87
69770;SHT30;57282;52.514;13.458;2022-11-15T08:09:15;8.69;77.70
69770;SHT30;57282;52.514;13.458;2022-11-15T08:11:42;8.72;77.55
69770;SHT30;57282;52.514;13.458;2022-11-15T08:14:08;8.69;77.84
69770;SHT30;57282;52.514;13.458;2022-11-15T08:16:35;8.71;78.07
69770;SHT30;57282;52.514;13.458;2022-11-15T08:19:03;8.71;78.27
69770;SHT30;57282;52.514;13.458;2022-11-15T08:21:30;8.73;78.48
69770;SHT30;57282;52.514;13.458;2022-11-15T08:23:57;8.85;78.35
69770;SHT30;57282;52.514;13.458;2022-11-15T08:26:23;8.89;78.08
69770;SHT30;57282;52.514;13.458;2022-11-15T08:28:54;8.98;77.76
69770;SHT30;57282;52.514;13.458;2022-11-15T08:31:20;8.99;77.78
69770;SHT30;57282;52.514;13.458;2022-11-15T08:33:47;9.05;77.54
69770;SHT30;57282;52.514;13.458;2022-11-15T08:36:16;9.02;77.94
69770;SHT30;57282;52.514;13.458;2022-11-15T08:38:43;9.12;77.60
69770;SHT30;57282;52.514;13.458;2022-11-15T08:41:12;9.13;77.39
69770;SHT30;57282;52.514;13.458;2022-11-15T08:43:43;9.19;77.68
69770;SHT30;57282;52.514;13.458;2022-11-15T08:46:12;9.22;77.91
69770;SHT30;57282;52.514;13.458;2022-11-15T08:48:39;9.22;77.67
69770;SHT30;57282;52.514;13.458;2022-11-15T08:51:06;9.34;77.58
69770;SHT30;57282;52.514;13.458;2022-11-15T08:53:34;9.38;77.44
69770;SHT30;57282;52.514;13.458;2022-11-15T08:56:01;9.48;77.31
69770;SHT30;57282;52.514;13.458;2022-11-15T08:58:28;9.52;77.21
69770;SHT30;57282;52.514;13.458;2022-11-15T09:00:55;9.54;77.10
69770;SHT30;57282;52.514;13.458;2022-11-15T09:03:22;9.57;77.50
69770;SHT30;57282;52.514;13.458;2022-11-15T09:05:48;9.61;77.35
69770;SHT30;57282;52.514;13.458;2022-11-15T09:08:19;9.70;77.22
69770;SHT30;57282;52.514;13.458;2022-11-15T09:10:48;9.75;76.89
69770;SHT30;57282;52.514;13.458;2022-11-15T09:13:15;9.81;76.86
69770;SHT30;57282;52.514;13.458;2022-11-15T09:15:41;9.89;76.59
69770;SHT30;57282;52.514;13.458;2022-11-15T09:18:08;9.89;76.71
69770;SHT30;57282;52.514;13.458;2022-11-15T09:20:35;9.98;76.50
69770;SHT30;57282;52.514;13.458;2022-11-15T09:23:04;10.05;76.28
69770;SHT30;57282;52.514;13.458;2022-11-15T09:25:31;10.09;76.42
69770;SHT30;57282;52.514;13.458;2022-11-15T09:28:00;10.15;76.12
69770;SHT30;57282;52.514;13.458;2022-11-15T09:30:26;10.19;76.06
69770;SHT30;57282;52.514;13.458;2022-11-15T09:32:53;10.19;76.07
69770;SHT30;57282;52.514;13.458;2022-11-15T09:35:20;10.23;76.19
69770;SHT30;57282;52.514;13.458;2022-11-15T09:37:46;10.29;75.90
69770;SHT30;57282;52.514;13.458;2022-11-15T09:40:14;10.36;75.34
69770;SHT30;57282;52.514;13.458;2022-11-15T09:43:07;11.71;76.16
69770;SHT30;57282;52.514;13.458;2022-11-15T09:45:59;12.93;70.23
69770;SHT30;57282;52.514;13.458;2022-11-15T09:48:48;13.93;66.75
69770;SHT30;57282;52.514;13.458;2022-11-15T09:51:24;14.71;63.83
69770;SHT30;57282;52.514;13.458;2022-11-15T09:54:01;15.39;60.69
69770;SHT30;57282;52.514;13.458;2022-11-15T09:56:36;15.66;59.46
69770;SHT30;57282;52.514;13.458;2022-11-15T09:59:17;15.86;58.54
69770;SHT30;57282;52.514;13.458;2022-11-15T10:02:02;16.08;57.34
69770;SHT30;57282;52.514;13.458;2022-11-15T10:04:36;16.30;56.38
69770;SHT30;57282;52.514;13.458;2022-11-15T10:07:12;16.49;55.68
69770;SHT30;57282;52.514;13.458;2022-11-15T10:09:46;16.63;55.41
69770;SHT30;57282;52.514;13.458;2022-11-15T10:12:18;15.95;56.70
69770;SHT30;57282;52.514;13.458;2022-11-15T10:14:49;15.19;59.06
69770;SHT30;57282;52.514;13.458;2022-11-15T10:17:51;14.37;60.81
69770;SHT30;57282;52.514;13.458;2022-11-15T10:20:29;14.06;62.25
69770;SHT30;57282;52.514;13.458;2022-11-15T10:23:05;13.71;63.97
69770;SHT30;57282;52.514;13.458;2022-11-15T10:25:36;13.51;65.09
69770;SHT30;57282;52.514;13.458;2022-11-15T10:28:11;13.34;65.57
69770;SHT30;57282;52.514;13.458;2022-11-15T10:30:44;13.17;66.30
69770;SHT30;57282;52.514;13.458;2022-11-15T10:33:19;13.06;66.68
69770;SHT30;57282;52.514;13.458;2022-11-15T10:36:19;13.03;67.77
69770;SHT30;57282;52.514;13.458;2022-11-15T10:38:56;12.96;67.41
69770;SHT30;57282;52.514;13.458;2022-11-15T10:41:43;12.97;67.63
69770;SHT30;57282;52.514;13.458;2022-11-15T10:44:20;12.79;67.88
69770;SHT30;57282;52.514;13.458;2022-11-15T10:49:59;12.59;68.31
69770;SHT30;57282;52.514;13.458;2022-11-15T10:52:28;12.58;68.79
69770;SHT30;57282;52.514;13.458;2022-11-15T10:55:05;12.52;69.16
69770;SHT30;57282;52.514;13.458;2022-11-15T10:58:00;12.50;69.47
69770;SHT30;57282;52.514;13.458;2022-11-15T11:00:33;12.50;69.70
69770;SHT30;57282;52.514;13.458;2022-11-15T11:03:06;12.53;70.37
69770;SHT30;57282;52.514;13.458;2022-11-15T11:06:04;12.55;70.04
69770;SHT30;57282;52.514;13.458;2022-11-15T11:08:32;12.52;69.34
69770;SHT30;57282;52.514;13.458;2022-11-15T11:11:01;12.53;69.83
69770;SHT30;57282;52.514;13.458;2022-11-15T11:13:30;12.55;69.92
69770;SHT30;57282;52.514;13.458;2022-11-15T11:16:15;12.69;69.89
69770;SHT30;57282;52.514;13.458;2022-11-15T11:18:56;12.63;69.68
69770;SHT30;57282;52.514;13.458;2022-11-15T11:21:39;12.56;69.84
69770;SHT30;57282;52.514;13.458;2022-11-15T11:24:18;12.59;69.77
69770;SHT30;57282;52.514;13.458;2022-11-15T11:27:08;12.58;69.81
69770;SHT30;57282;52.514;13.458;2022-11-15T11:30:02;12.70;70.56
69770;SHT30;57282;52.514;13.458;2022-11-15T11:32:56;12.66;69.94
69770;SHT30;57282;52.514;13.458;2022-11-15T11:35:39;12.66;70.07
69770;SHT30;57282;52.514;13.458;2022-11-15T11:38:23;12.66;70.51
69770;SHT30;57282;52.514;13.458;2022-11-15T11:41:05;12.65;70.63
69770;SHT30;57282;52.514;13.458;2022-11-15T11:43:50;12.65;70.75
69770;SHT30;57282;52.514;13.458;2022-11-15T11:46:45;12.65;70.33
69770;SHT30;57282;52.514;13.458;2022-11-15T11:49:18;12.63;70.59
69770;SHT30;57282;52.514;13.458;2022-11-15T11:51:54;12.79;72.50
69770;SHT30;57282;52.514;13.458;2022-11-15T11:54:33;12.77;70.78
69770;SHT30;57282;52.514;13.458;2022-11-15T11:57:10;12.76;70.38
69770;SHT30;57282;52.514;13.458;2022-11-15T11:59:46;12.75;70.49
69770;SHT30;57282;52.514;13.458;2022-11-15T12:02:21;12.75;70.79
69770;SHT30;57282;52.514;13.458;2022-11-15T12:05:01;12.79;70.75
69770;SHT30;57282;52.514;13.458;2022-11-15T12:07:35;12.75;70.83
69770;SHT30;57282;52.514;13.458;2022-11-15T12:10:14;12.77;70.61
69770;SHT30;57282;52.514;13.458;2022-11-15T12:12:54;12.77;70.96
69770;SHT30;57282;52.514;13.458;2022-11-15T12:15:27;12.77;70.97
69770;SHT30;57282;52.514;13.458;2022-11-15T12:18:00;12.83;71.13
69770;SHT30;57282;52.514;13.458;2022-11-15T12:20:30;12.86;71.16
69770;SHT30;57282;52.514;13.458;2022-11-15T12:23:05;12.83;70.98
69770;SHT30;57282;52.514;13.458;2022-11-15T12:25:43;12.86;70.72
69770;SHT30;57282;52.514;13.458;2022-11-15T12:28:18;12.83;70.79
69770;SHT30;57282;52.514;13.458;2022-11-15T12:30:57;12.87;71.09
69770;SHT30;57282;52.514;13.458;2022-11-15T12:33:32;12.86;70.87
69770;SHT30;57282;52.514;13.458;2022-11-15T12:36:05;12.90;71.01
69770;SHT30;57282;52.514;13.458;2022-11-15T12:38:55;12.93;70.98
69770;SHT30;57282;52.514;13.458;2022-11-15T12:41:24;12.93;70.62
69770;SHT30;57282;52.514;13.458;2022-11-15T12:43:52;12.99;70.78
69770;SHT30;57282;52.514;13.458;2022-11-15T12:46:23;13.00;71.06
69770;SHT30;57282;52.514;13.458;2022-11-15T12:49:10;13.04;71.22
69770;SHT30;57282;52.514;13.458;2022-11-15T12:52:06;13.06;71.04
69770;SHT30;57282;52.514;13.458;2022-11-15T12:54:58;13.04;70.70
69770;SHT30;57282;52.514;13.458;2022-11-15T12:57:32;13.08;70.70
69770;SHT30;57282;52.514;13.458;2022-11-15T13:03:27;13.14;70.81
69770;SHT30;57282;52.514;13.458;2022-11-15T13:12:51;13.21;70.47
69770;SHT30;57282;52.514;13.458;2022-11-15T13:15:56;13.23;70.60
69770;SHT30;57282;52.514;13.458;2022-11-15T13:18:32;13.24;70.64
69770;SHT30;57282;52.514;13.458;2022-11-15T13:21:05;13.25;70.59
69770;SHT30;57282;52.514;13.458;2022-11-15T13:24:03;13.33;70.24
69770;SHT30;57282;52.514;13.458;2022-11-15T13:26:49;13.37;70.33
69770;SHT30;57282;52.514;13.458;2022-11-15T13:29:18;13.64;71.23
69770;SHT30;57282;52.514;13.458;2022-11-15T13:31:46;13.62;69.94
69770;SHT30;57282;52.514;13.458;2022-11-15T13:34:22;13.61;69.63
69770;SHT30;57282;52.514;13.458;2022-11-15T13:36:52;13.57;69.84
69770;SHT30;57282;52.514;13.458;2022-11-15T13:39:27;13.58;69.91
69770;SHT30;57282;52.514;13.458;2022-11-15T13:41:57;13.57;69.76
69770;SHT30;57282;52.514;13.458;2022-11-15T13:44:26;13.53;69.40
69770;SHT30;57282;52.514;13.458;2022-11-15T13:47:01;13.51;69.36
69770;SHT30;57282;52.514;13.458;2022-11-15T13:49:30;13.66;70.08
69770;SHT30;57282;52.514;13.458;2022-11-15T13:52:00;13.65;69.70
69770;SHT30;57282;52.514;13.458;2022-11-15T13:54:30;13.68;70.15
69770;SHT30;57282;52.514;13.458;2022-11-15T13:57:03;13.65;69.52
69770;SHT30;57282;52.514;13.458;2022-11-15T13:59:37;13.62;69.68
69770;SHT30;57282;52.514;13.458;2022-11-15T14:02:13;13.57;69.30
69770;SHT30;57282;52.514;13.458;2022-11-15T14:04:46;13.59;69.74
69770;SHT30;57282;52.514;13.458;2022-11-15T14:07:19;14.20;69.93
69770;SHT30;57282;52.514;13.458;2022-11-15T14:09:48;14.98;66.75
69770;SHT30;57282;52.514;13.458;2022-11-15T14:12:29;15.74;63.67
69770;SHT30;57282;52.514;13.458;2022-11-15T14:14:58;16.16;61.98
69770;SHT30;57282;52.514;13.458;2022-11-15T14:17:35;16.46;60.76
69770;SHT30;57282;52.514;13.458;2022-11-15T14:20:29;16.69;59.53
69770;SHT30;57282;52.514;13.458;2022-11-15T14:22:59;16.93;58.35
69770;SHT30;57282;52.514;13.458;2022-11-15T14:25:27;17.13;57.49
69770;SHT30;57282;52.514;13.458;2022-11-15T14:28:28;16.81;58.05
69770;SHT30;57282;52.514;13.458;2022-11-15T14:30:59;16.24;60.26
69770;SHT30;57282;52.514;13.458;2022-11-15T14:33:29;15.83;61.53
69770;SHT30;57282;52.514;13.458;2022-11-15T14:36:03;15.49;62.88
69770;SHT30;57282;52.514;13.458;2022-11-15T14:38:32;15.32;63.57
69770;SHT30;57282;52.514;13.458;2022-11-15T14:40:59;15.08;64.17
69770;SHT30;57282;52.514;13.458;2022-11-15T14:43:27;14.91;64.67
69770;SHT30;57282;52.514;13.458;2022-11-15T14:45:54;14.74;65.33
69770;SHT30;57282;52.514;13.458;2022-11-15T14:48:21;14.61;65.85
69770;SHT30;57282;52.514;13.458;2022-11-15T14:50:48;14.51;66.24
69770;SHT30;57282;52.514;13.458;2022-11-15T14:53:16;14.44;66.70
69770;SHT30;57282;52.514;13.458;2022-11-15T14:55:45;14.37;67.00
69770;SHT30;57282;52.514;13.458;2022-11-15T14:58:11;14.27;67.22
69770;SHT30;57282;52.514;13.458;2022-11-15T15:00:40;14.24;67.54
69770;SHT30;57282;52.514;13.458;2022-11-15T15:03:08;14.17;67.78
69770;SHT30;57282;52.514;13.458;2022-11-15T15:05:38;14.14;68.08
69770;SHT30;57282;52.514;13.458;2022-11-15T15:08:06;14.20;68.07
69770;SHT30;57282;52.514;13.458;2022-11-15T15:10:35;14.29;67.74
69770;SHT30;57282;52.514;13.458;2022-11-15T15:13:04;14.17;67.79
69770;SHT30;57282;52.514;13.458;2022-11-15T15:15:32;14.05;68.50
69770;SHT30;57282;52.514;13.458;2022-11-15T15:18:02;13.95;69.00
69770;SHT30;57282;52.514;13.458;2022-11-15T15:20:30;13.89;69.17
69770;SHT30;57282;52.514;13.458;2022-11-15T15:22:57;13.82;69.76
69770;SHT30;57282;52.514;13.458;2022-11-15T15:25:27;13.72;69.93
69770;SHT30;57282;52.514;13.458;2022-11-15T15:27:55;14.01;70.09
69770;SHT30;57282;52.514;13.458;2022-11-15T15:30:23;14.06;69.12
69770;SHT30;57282;52.514;13.458;2022-11-15T15:32:51;14.10;68.96
69770;SHT30;57282;52.514;13.458;2022-11-15T15:35:20;14.13;68.86
69770;SHT30;57282;52.514;13.458;2022-11-15T15:37:48;14.13;68.65
69770;SHT30;57282;52.514;13.458;2022-11-15T15:40:18;14.13;68.56
69770;SHT30;57282;52.514;13.458;2022-11-15T15:42:46;14.06;68.50
69770;SHT30;57282;52.514;13.458;2022-11-15T15:45:14;14.09;68.60
69770;SHT30;57282;52.514;13.458;2022-11-15T15:47:42;14.10;68.59
69770;SHT30;57282;52.514;13.458;2022-11-15T15:50:21;14.10;68.33
69770;SHT30;57282;52.514;13.458;2022-11-15T15:52:50;14.10;68.41
69770;SHT30;57282;52.514;13.458;2022-11-15T15:55:17;14.09;68.46
69770;SHT30;57282;52.514;13.458;2022-11-15T15:57:44;14.09;68.51
69770;SHT30;57282;52.514;13.458;2022-11-15T16:00:12;14.09;68.61
69770;SHT30;57282;52.514;13.458;2022-11-15T16:02:42;14.10;68.61
69770;SHT30;57282;52.514;13.458;2022-11-15T16:05:10;14.10;68.77
69770;SHT30;57282;52.514;13.458;2022-11-15T16:07:39;14.12;68.63
69770;SHT30;57282;52.514;13.458;2022-11-15T16:10:21;14.10;68.88
69770;SHT30;57282;52.514;13.458;2022-11-15T16:12:50;14.08;68.80
69770;SHT30;57282;52.514;13.458;2022-11-15T16:15:18;14.41;68.88